Time;durP1;ratioP1;P1;durP2;ratioP2;P2;SDS_P1;SDS_P2;PMS_P1;PMS_P2;Temp;Humidity;BMP_temperature;BMP_pressure;BME280_temperature;BME280_humidity;BME280_pressure;Samples;Min_cycle;Max_cycle;Signal;HPM_P1;HPM_P2
2021/06/01 00:00:15;;;;;;;2.40;2.20;;;13.80;56.00;;;;;;4969320;28;20375;-87
2021/06/01 00:02:41;;;;;;;2.30;2.10;;;13.80;56.60;;;;;;4973670;28;20229;-87
2021/06/01 00:05:08;;;;;;;2.33;1.83;;;13.70;56.90;;;;;;4963028;28;20204;-87
2021/06/01 00:07:34;;;;;;;3.43;2.50;;;;;;;;;;4974169;28;20216;-88
2021/06/01 00:10:01;;;;;;;3.27;2.13;;;13.70;56.40;;;;;;4970614;28;20204;-88
2021/06/01 00:12:26;;;;;;;2.23;2.03;;;13.60;57.10;;;;;;4975091;28;20307;-88
2021/06/01 00:14:52;;;;;;;2.90;2.60;;;13.60;57.00;;;;;;4964768;28;20237;-88
2021/06/01 00:17:18;;;;;;;2.87;2.40;;;13.60;57.40;;;;;;4963670;28;20228;-88
2021/06/01 00:19:43;;;;;;;2.73;2.33;;;13.50;57.90;;;;;;4953909;28;20209;-88
2021/06/01 00:22:09;;;;;;;3.53;2.30;;;13.50;56.50;;;;;;4963882;28;20189;-87
2021/06/01 00:24:35;;;;;;;2.73;2.37;;;13.60;56.40;;;;;;4974216;28;20227;-87
2021/06/01 00:27:01;;;;;;;3.80;2.17;;;13.60;56.20;;;;;;4961483;28;20239;-87
2021/06/01 00:29:27;;;;;;;2.50;2.30;;;13.50;56.30;;;;;;4960112;28;20224;-88
2021/06/01 00:31:53;;;;;;;2.40;2.20;;;13.50;56.40;;;;;;4960795;28;20693;-88
2021/06/01 00:34:18;;;;;;;2.83;2.47;;;14.10;57.10;;;;;;4939611;28;20317;-87
2021/06/01 00:36:45;;;;;;;2.73;2.27;;;13.50;56.50;;;;;;4952867;28;20198;-87
2021/06/01 00:39:10;;;;;;;3.13;2.50;;;13.50;56.80;;;;;;4962283;28;20203;-87
2021/06/01 00:41:36;;;;;;;3.10;2.20;;;13.40;56.50;;;;;;4952998;28;20226;-85
2021/06/01 00:44:02;;;;;;;2.30;1.93;;;13.40;56.90;;;;;;4957342;28;20213;-87
2021/06/01 00:46:28;;;;;;;2.90;2.40;;;13.40;57.20;;;;;;4936223;29;20808;-88
2021/06/01 00:48:54;;;;;;;2.50;2.03;;;13.30;57.20;;;;;;4936565;29;20293;-88
2021/06/01 00:51:19;;;;;;;3.20;2.30;;;13.30;57.80;;;;;;4940230;28;20224;-89
2021/06/01 00:53:45;;;;;;;2.30;2.00;;;13.30;57.90;;;;;;4933941;29;20286;-89
2021/06/01 00:56:11;;;;;;;4.17;2.40;;;13.20;57.30;;;;;;4931847;29;20236;-89
2021/06/01 00:58:37;;;;;;;2.50;2.40;;;13.20;57.80;;;;;;4932643;29;20205;-89
2021/06/01 01:03:37;;;;;;;2.80;2.50;;;13.10;58.10;;;;;;4937012;29;20246;-88
2021/06/01 01:06:10;;;;;;;2.67;2.47;;;13.10;59.20;;;;;;4917697;29;20266;-88
2021/06/01 01:08:49;;;;;;;2.13;1.93;;;12.90;58.60;;;;;;4933874;29;20687;-88
2021/06/01 01:11:33;;;;;;;2.67;2.27;;;12.90;58.50;;;;;;4925322;29;20222;-88
2021/06/01 01:14:02;;;;;;;2.53;2.33;;;12.90;59.00;;;;;;4935527;28;20218;-86
2021/06/01 01:16:29;;;;;;;2.93;2.70;;;12.90;59.00;;;;;;4938275;28;20215;-88
2021/06/01 01:19:05;;;;;;;2.50;2.07;;;12.80;59.70;;;;;;4960442;28;20216;-87
2021/06/01 01:21:36;;;;;;;2.27;1.90;;;12.80;59.70;;;;;;4971707;28;20216;-88
2021/06/01 01:24:24;;;;;;;2.83;2.50;;;12.70;60.10;;;;;;4955344;28;20304;-88
2021/06/01 01:26:58;;;;;;;2.30;2.20;;;12.70;60.60;;;;;;4953138;28;20247;-88
2021/06/01 01:29:37;;;;;;;3.70;2.47;;;12.70;60.20;;;;;;4968935;28;20189;-87
2021/06/01 01:32:05;;;;;;;2.60;2.40;;;12.70;60.40;;;;;;4955723;28;20312;-88
2021/06/01 01:34:33;;;;;;;6.07;2.80;;;12.70;60.30;;;;;;4962298;28;20205;-87
2021/06/01 01:37:00;;;;;;;2.80;2.60;;;12.60;60.20;;;;;;4972480;28;20170;-87
2021/06/01 01:39:30;;;;;;;3.80;2.13;;;12.70;60.00;;;;;;4960127;28;20268;-88
2021/06/01 01:41:56;;;;;;;3.43;2.50;;;12.60;60.00;;;;;;4957764;28;20228;-87
2021/06/01 01:44:24;;;;;;;2.73;2.00;;;12.60;60.10;;;;;;4958442;28;20223;-89
2021/06/01 01:47:05;;;;;;;2.00;1.90;;;12.60;60.10;;;;;;4956071;28;20227;-88
2021/06/01 01:49:30;;;;;;;2.93;2.70;;;12.60;60.20;;;;;;4962550;28;20212;-87
2021/06/01 01:52:00;;;;;;;3.07;2.43;;;12.60;60.20;;;;;;4966229;28;20200;-88
2021/06/01 01:54:31;;;;;;;2.20;2.00;;;12.60;60.50;;;;;;4971644;28;20233;-88
2021/06/01 01:57:07;;;;;;;2.57;2.33;;;12.50;60.00;;;;;;4953729;28;20228;-88
2021/06/01 01:59:33;;;;;;;2.83;2.60;;;12.50;60.60;;;;;;4952109;28;20242;-88
2021/06/01 02:02:00;;;;;;;3.27;2.60;;;12.50;60.80;;;;;;4961684;28;20255;-87
2021/06/01 02:04:28;;;;;;;2.80;2.50;;;12.50;61.10;;;;;;4956259;28;20330;-88
2021/06/01 02:06:54;;;;;;;2.67;2.47;;;13.30;62.30;;;;;;4954399;28;20221;-88
2021/06/01 02:09:21;;;;;;;2.47;2.07;;;12.30;61.40;;;;;;4957428;28;20235;-88
2021/06/01 02:11:47;;;;;;;2.90;2.30;;;12.30;61.90;;;;;;4969912;28;20228;-88
2021/06/01 02:14:12;;;;;;;2.60;2.17;;;12.30;63.30;;;;;;4958651;28;20192;-88
2021/06/01 02:16:42;;;;;;;2.90;2.67;;;12.20;63.90;;;;;;4959808;28;20198;-88
2021/06/01 02:19:10;;;;;;;2.43;2.23;;;12.10;65.50;;;;;;4969591;28;20314;-89
2021/06/01 02:22:15;;;;;;;4.20;2.23;;;12.00;65.20;;;;;;4954397;28;20224;-89
2021/06/01 02:24:56;;;;;;;2.87;2.43;;;12.00;64.40;;;;;;4971970;28;20320;-88
2021/06/01 02:27:37;;;;;;;3.27;2.30;;;11.90;65.00;;;;;;4958643;28;20815;-88
2021/06/01 02:30:05;;;;;;;2.37;2.17;;;11.90;65.30;;;;;;4970201;28;20274;-89
2021/06/01 02:32:50;;;;;;;2.60;2.37;;;11.80;65.20;;;;;;4961949;28;20228;-89
2021/06/01 02:35:22;;;;;;;2.83;2.43;;;11.80;65.20;;;;;;4972695;28;20212;-88
2021/06/01 02:37:50;;;;;;;3.47;2.80;;;12.70;66.30;;;;;;4955446;28;20186;-89
2021/06/01 02:40:18;;;;;;;3.10;2.60;;;13.00;66.30;;;;;;4960229;28;20206;-89
2021/06/01 02:42:44;;;;;;;3.50;2.60;;;11.80;65.40;;;;;;4968223;28;20233;-89
2021/06/01 02:45:13;;;;;;;3.03;2.70;;;11.80;65.20;;;;;;4959323;28;20578;-88
2021/06/01 02:47:40;;;;;;;2.70;2.50;;;11.80;65.70;;;;;;4965071;28;20196;-88
2021/06/01 02:50:09;;;;;;;3.20;2.83;;;12.80;67.40;;;;;;4958752;28;20223;-88
2021/06/01 02:52:36;;;;;;;3.10;2.77;;;11.70;65.10;;;;;;4956767;28;20535;-88
2021/06/01 02:55:04;;;;;;;4.70;2.73;;;11.70;65.50;;;;;;4954183;28;20229;-88
2021/06/01 02:57:30;;;;;;;2.70;2.40;;;11.70;67.00;;;;;;4954908;28;20249;-88
2021/06/01 02:59:56;;;;;;;3.10;2.80;;;11.70;66.70;;;;;;4959221;28;20228;-87
2021/06/01 03:02:25;;;;;;;5.50;2.80;;;11.60;66.60;;;;;;4958712;28;20301;-87
2021/06/01 03:04:54;;;;;;;3.63;3.00;;;11.40;66.60;;;;;;4972148;28;20263;-87
2021/06/01 03:07:21;;;;;;;3.40;3.10;;;11.40;67.20;;;;;;4973478;28;20209;-87
2021/06/01 03:09:47;;;;;;;4.50;3.03;;;11.30;67.90;;;;;;4951824;28;20288;-87
2021/06/01 03:12:23;;;;;;;3.50;2.97;;;11.30;68.70;;;;;;4972553;28;20712;-87
2021/06/01 03:14:48;;;;;;;3.50;2.80;;;11.40;67.90;;;;;;4948742;28;20380;-87
2021/06/01 03:17:15;;;;;;;4.00;2.93;;;11.30;67.20;;;;;;4954628;28;20199;-87
2021/06/01 03:19:41;;;;;;;3.67;3.23;;;11.40;66.80;;;;;;4951173;28;20190;-87
2021/06/01 03:22:07;;;;;;;4.60;2.73;;;11.30;67.00;;;;;;4972828;28;20260;-87
2021/06/01 03:24:33;;;;;;;2.67;2.47;;;11.30;67.40;;;;;;4960147;28;20237;-87
2021/06/01 03:26:59;;;;;;;3.03;2.70;;;11.30;67.70;;;;;;4957732;28;20625;-87
2021/06/01 03:29:25;;;;;;;4.03;2.70;;;;;;;;;;4956313;28;20258;-88
2021/06/01 03:31:51;;;;;;;3.17;2.87;;;11.30;67.60;;;;;;4970470;28;20233;-88
2021/06/01 03:34:16;;;;;;;3.77;3.23;;;11.30;68.30;;;;;;4957738;28;20194;-88
2021/06/01 03:36:42;;;;;;;4.30;2.90;;;11.30;69.80;;;;;;4957612;28;20217;-87
2021/06/01 03:39:09;;;;;;;4.83;3.30;;;11.10;70.20;;;;;;4959143;28;20203;-87
2021/06/01 03:41:35;;;;;;;3.77;2.70;;;11.30;72.00;;;;;;4951905;28;20202;-88
2021/06/01 03:44:03;;;;;;;2.90;2.40;;;11.00;71.00;;;;;;4956115;28;20190;-88
2021/06/01 03:46:28;;;;;;;4.10;3.47;;;11.00;70.90;;;;;;4950910;28;20242;-87
2021/06/01 03:48:54;;;;;;;5.63;2.90;;;11.00;70.40;;;;;;4958639;28;20260;-88
2021/06/01 03:51:20;;;;;;;3.40;3.10;;;11.00;70.00;;;;;;4955336;28;20249;-88
2021/06/01 03:53:47;;;;;;;3.37;3.03;;;11.10;69.90;;;;;;4955759;28;20221;-88
2021/06/01 03:56:14;;;;;;;3.83;2.63;;;11.20;68.30;;;;;;4952435;28;20240;-88
2021/06/01 03:58:40;;;;;;;3.33;3.03;;;11.60;69.30;;;;;;4956846;28;20580;-88
2021/06/01 04:01:06;;;;;;;4.10;2.97;;;11.20;68.60;;;;;;4961713;28;20201;-88
2021/06/01 04:03:36;;;;;;;3.07;2.60;;;11.20;68.70;;;;;;4963478;28;20237;-88
2021/06/01 04:06:02;;;;;;;5.37;3.80;;;11.30;67.80;;;;;;4950536;28;20221;-88
2021/06/01 04:08:28;;;;;;;2.80;2.60;;;11.30;67.80;;;;;;4954040;28;20680;-88
2021/06/01 04:10:53;;;;;;;4.30;2.93;;;11.40;67.40;;;;;;4959213;28;20282;-88
2021/06/01 04:13:20;;;;;;;3.87;3.53;;;11.40;67.30;;;;;;4952753;28;20194;-88
2021/06/01 04:15:46;;;;;;;4.07;3.00;;;11.40;67.10;;;;;;4953095;28;20237;-88
2021/06/01 04:18:11;;;;;;;2.90;2.67;;;11.50;67.00;;;;;;4953803;28;20547;-88
2021/06/01 04:20:37;;;;;;;3.83;2.87;;;11.50;66.60;;;;;;4970475;28;20221;-88
2021/06/01 04:23:02;;;;;;;3.40;3.10;;;11.60;65.70;;;;;;4960303;28;20598;-87
2021/06/01 04:25:28;;;;;;;5.33;2.93;;;11.70;65.90;;;;;;4958149;28;20185;-88
2021/06/01 04:27:54;;;;;;;3.10;2.80;;;11.80;65.30;;;;;;4958480;28;20251;-88
2021/06/01 04:30:20;;;;;;;5.70;3.07;;;11.90;65.30;;;;;;4956650;28;20283;-88
2021/06/01 04:32:45;;;;;;;5.20;3.17;;;12.00;65.30;;;;;;4958169;28;20220;-88
2021/06/01 04:35:12;;;;;;;3.10;2.80;;;12.10;64.90;;;;;;4953934;28;20244;-88
2021/06/01 04:37:37;;;;;;;7.00;2.97;;;12.20;64.60;;;;;;4950062;28;20204;-88
2021/06/01 04:40:04;;;;;;;3.87;3.23;;;12.20;64.10;;;;;;4958741;28;20598;-87
2021/06/01 04:42:29;;;;;;;3.83;2.67;;;12.30;63.70;;;;;;4958653;28;20232;-87
2021/06/01 04:44:55;;;;;;;5.23;3.60;;;12.40;63.40;;;;;;4962753;28;20230;-87
2021/06/01 04:47:21;;;;;;;3.23;2.70;;;12.50;63.30;;;;;;4957504;28;20203;-87
2021/06/01 04:49:50;;;;;;;7.47;3.50;;;12.60;62.90;;;;;;4955363;28;20217;-88
2021/06/01 04:52:15;;;;;;;3.73;3.40;;;12.80;62.50;;;;;;4961211;28;20232;-88
2021/06/01 04:54:41;;;;;;;3.40;2.73;;;12.90;61.90;;;;;;4952850;28;20245;-88
2021/06/01 04:57:07;;;;;;;3.27;2.97;;;13.20;59.70;;;;;;4963748;28;20321;-87
2021/06/01 04:59:35;;;;;;;5.10;2.90;;;13.20;60.20;;;;;;4962855;28;20247;-87
2021/06/01 05:02:00;;;;;;;4.13;2.77;;;13.30;60.30;;;;;;4955317;28;20229;-88
2021/06/01 05:04:26;;;;;;;3.27;2.97;;;13.50;59.40;;;;;;4962100;28;20201;-87
2021/06/01 05:06:56;;;;;;;3.30;2.57;;;13.60;58.50;;;;;;4959554;28;20229;-87
2021/06/01 05:09:23;;;;;;;4.07;3.20;;;13.60;58.10;;;;;;4955892;28;20666;-87
2021/06/01 05:11:48;;;;;;;3.30;3.00;;;13.80;57.50;;;;;;4954968;28;20259;-87
2021/06/01 05:14:14;;;;;;;5.00;3.00;;;13.90;57.60;;;;;;4961162;28;20213;-88
2021/06/01 05:16:40;;;;;;;3.37;3.03;;;14.10;57.10;;;;;;4963106;28;20201;-88
2021/06/01 05:19:06;;;;;;;2.90;2.60;;;14.20;56.40;;;;;;4958005;28;20194;-87
2021/06/01 05:21:31;;;;;;;3.23;2.93;;;14.30;56.00;;;;;;4961378;28;20241;-88
2021/06/01 05:23:57;;;;;;;3.67;2.53;;;14.40;55.40;;;;;;4960217;28;20224;-88
2021/06/01 05:26:23;;;;;;;2.93;2.63;;;14.60;54.40;;;;;;4961590;28;20243;-88
2021/06/01 05:28:48;;;;;;;3.17;2.67;;;14.70;54.20;;;;;;4957555;28;20221;-89
2021/06/01 05:33:43;;;;;;;2.73;2.53;;;15.10;53.10;;;;;;4979130;28;20204;-88
2021/06/01 05:36:08;;;;;;;2.83;2.53;;;15.10;52.30;;;;;;4960554;28;20236;-88
2021/06/01 05:38:34;;;;;;;2.57;2.30;;;15.30;51.20;;;;;;4958803;28;20226;-87
2021/06/01 05:41:01;;;;;;;2.70;2.50;;;15.40;51.10;;;;;;4960569;28;20321;-87
2021/06/01 05:43:29;;;;;;;3.00;2.70;;;15.60;50.60;;;;;;4954649;28;20285;-87
2021/06/01 05:45:56;;;;;;;3.63;2.87;;;15.70;49.10;;;;;;4960571;28;20221;-87
2021/06/01 05:48:23;;;;;;;5.93;2.80;;;15.70;49.70;;;;;;4965949;28;20288;-87
2021/06/01 05:50:49;;;;;;;3.60;2.87;;;15.70;49.70;;;;;;4962241;28;21020;-88
2021/06/01 05:53:16;;;;;;;3.40;2.50;;;15.80;49.40;;;;;;4958883;28;20225;-84
2021/06/01 05:55:44;;;;;;;3.10;2.50;;;15.80;49.50;;;;;;4954967;28;20238;-88
2021/06/01 05:58:09;;;;;;;3.57;2.60;;;15.90;47.90;;;;;;4960476;28;20233;-88
2021/06/01 06:00:35;;;;;;;3.00;2.50;;;16.00;48.60;;;;;;4957439;28;20462;-88
2021/06/01 06:03:02;;;;;;;3.43;2.60;;;16.20;49.20;;;;;;4970120;28;20276;-88
2021/06/01 06:05:28;;;;;;;2.47;2.27;;;16.30;47.60;;;;;;4970229;28;20229;-88
2021/06/01 06:07:54;;;;;;;2.27;2.07;;;16.30;47.20;;;;;;4957043;28;20296;-88
2021/06/01 06:10:20;;;;;;;4.07;2.53;;;16.30;46.60;;;;;;4964223;28;20190;-88
2021/06/01 06:12:47;;;;;;;4.00;2.63;;;16.40;46.70;;;;;;4960131;28;20232;-88
2021/06/01 06:15:16;;;;;;;2.83;2.63;;;16.30;45.90;;;;;;4956746;28;20244;-87
2021/06/01 06:18:03;;;;;;;2.90;2.37;;;16.30;46.20;;;;;;4960788;28;20185;-87
2021/06/01 06:20:29;;;;;;;3.20;2.53;;;16.40;46.00;;;;;;4971374;28;20641;-88
2021/06/01 06:22:56;;;;;;;2.47;2.27;;;16.40;45.00;;;;;;4953411;28;20348;-87
2021/06/01 06:25:22;;;;;;;3.63;2.80;;;16.40;45.10;;;;;;4953508;28;20196;-89
2021/06/01 06:27:48;;;;;;;3.00;2.70;;;16.40;45.60;;;;;;4962752;28;20213;-88
2021/06/01 06:30:14;;;;;;;3.57;2.53;;;16.60;45.90;;;;;;4968127;28;20329;-87
2021/06/01 06:32:39;;;;;;;2.60;2.40;;;16.80;45.90;;;;;;4953877;28;20197;-87
2021/06/01 06:35:07;;;;;;;5.33;2.90;;;16.70;46.20;;;;;;4957770;28;20293;-86
2021/06/01 06:37:34;;;;;;;3.60;2.97;;;16.80;45.80;;;;;;4954064;28;20234;-88
2021/06/01 06:40:00;;;;;;;2.70;2.43;;;16.70;46.10;;;;;;4969627;28;20232;-89
2021/06/01 06:42:26;;;;;;;3.07;2.87;;;17.00;45.50;;;;;;4964883;28;20731;-87
2021/06/01 06:44:53;;;;;;;4.30;2.50;;;16.90;44.30;;;;;;4957110;28;20257;-87
2021/06/01 06:47:40;;;;;;;2.43;2.23;;;17.00;44.50;;;;;;4972632;28;20221;-87
2021/06/01 06:50:11;;;;;;;5.27;2.70;;;17.40;43.40;;;;;;4962324;28;20615;-87
2021/06/01 06:52:37;;;;;;;2.73;2.53;;;17.40;44.20;;;;;;4952539;28;20244;-86
2021/06/01 06:55:05;;;;;;;2.33;2.10;;;17.50;44.00;;;;;;4962156;28;20221;-87
2021/06/01 06:57:30;;;;;;;3.47;2.37;;;17.70;43.30;;;;;;4958539;28;20226;-86
2021/06/01 06:59:57;;;;;;;2.73;2.50;;;17.70;42.40;;;;;;4963928;28;20827;-86
2021/06/01 07:02:25;;;;;;;4.03;2.53;;;17.70;43.90;;;;;;4947468;28;20198;-87
2021/06/01 07:04:50;;;;;;;2.50;2.30;;;17.90;43.90;;;;;;4950596;28;20233;-88
2021/06/01 07:07:16;;;;;;;2.53;2.33;;;18.10;42.50;;;;;;4958488;28;20229;-86
2021/06/01 07:09:41;;;;;;;5.27;2.63;;;18.00;43.50;;;;;;4965987;28;20246;-87
2021/06/01 07:12:08;;;;;;;3.23;2.63;;;18.20;42.10;;;;;;4964276;28;20230;-87
2021/06/01 07:14:45;;;;;;;2.80;2.13;;;18.30;42.10;;;;;;4963288;28;20250;-87
2021/06/01 07:17:11;;;;;;;4.10;2.40;;;18.30;41.80;;;;;;4968902;28;20328;-87
2021/06/01 07:19:37;;;;;;;2.90;2.53;;;18.20;41.60;;;;;;4964274;28;20304;-87
2021/06/01 07:22:03;;;;;;;2.90;2.27;;;18.00;42.80;;;;;;4958938;28;20187;-87
2021/06/01 07:24:29;;;;;;;2.57;2.37;;;18.10;42.30;;;;;;4955983;28;20199;-87
2021/06/01 07:26:54;;;;;;;2.60;2.40;;;18.10;42.80;;;;;;4954335;28;20234;-87
2021/06/01 07:29:21;;;;;;;4.57;2.77;;;18.20;43.00;;;;;;4958226;28;20223;-88
2021/06/01 07:31:50;;;;;;;4.03;2.53;;;18.30;43.70;;;;;;4959738;28;20195;-88
2021/06/01 07:34:16;;;;;;;3.00;2.47;;;18.50;44.00;;;;;;4971820;28;20317;-87
2021/06/01 07:36:44;;;;;;;3.77;2.57;;;18.90;40.20;;;;;;4951893;28;20246;-89
2021/06/01 07:39:10;;;;;;;2.47;2.23;;;18.90;40.70;;;;;;4960375;28;20286;-87
2021/06/01 07:41:36;;;;;;;4.43;2.67;;;18.90;41.30;;;;;;4970559;28;20305;-87
2021/06/01 07:44:03;;;;;;;4.67;2.43;;;19.00;39.60;;;;;;4961186;28;20298;-87
2021/06/01 07:46:33;;;;;;;2.30;2.10;;;19.20;40.50;;;;;;4973448;28;20188;-86
2021/06/01 07:49:00;;;;;;;4.97;2.70;;;19.50;39.70;;;;;;4955071;28;20184;-87
2021/06/01 07:51:31;;;;;;;2.50;2.30;;;;;;;;;;4958610;28;20247;-87
2021/06/01 07:54:05;;;;;;;3.90;2.57;;;19.60;38.10;;;;;;4973672;28;20223;-88
2021/06/01 07:56:32;;;;;;;2.77;2.40;;;;;;;;;;4969643;28;20236;-86
2021/06/01 07:58:58;;;;;;;2.20;2.00;;;19.70;38.80;;;;;;4968113;28;20231;-87
2021/06/01 08:01:24;;;;;;;2.33;2.13;;;19.80;37.30;;;;;;4955453;28;20203;-88
2021/06/01 08:03:50;;;;;;;2.50;2.30;;;;;;;;;;4959592;28;20193;-88
2021/06/01 08:06:16;;;;;;;4.13;2.47;;;20.10;36.60;;;;;;4937475;28;20217;-88
2021/06/01 08:08:43;;;;;;;4.87;2.50;;;;;;;;;;4958278;28;20224;-89
2021/06/01 08:11:09;;;;;;;2.40;2.20;;;20.30;36.40;;;;;;4973222;28;20231;-88
2021/06/01 08:13:35;;;;;;;4.80;2.60;;;20.50;37.00;;;;;;4962810;28;20212;-88
2021/06/01 08:16:03;;;;;;;5.17;2.30;;;20.60;36.00;;;;;;4959901;28;20214;-89
2021/06/01 08:18:35;;;;;;;2.63;1.90;;;20.60;33.00;;;;;;4960930;28;20217;-89
2021/06/01 08:21:09;;;;;;;2.93;2.17;;;20.70;33.70;;;;;;4955596;28;20250;-89
2021/06/01 08:23:39;;;;;;;3.10;2.40;;;;;;;;;;4974433;28;20300;-86
2021/06/01 08:26:06;;;;;;;3.17;2.10;;;;;;;;;;4965068;28;20236;-88
2021/06/01 08:28:33;;;;;;;3.80;2.27;;;20.80;33.70;;;;;;4978114;28;20218;-88
2021/06/01 08:31:02;;;;;;;4.00;2.03;;;20.50;35.40;;;;;;4976192;28;20189;-87
2021/06/01 08:33:27;;;;;;;3.53;2.60;;;20.50;34.90;;;;;;4948671;29;20277;-87
2021/06/01 08:35:53;;;;;;;2.50;2.30;;;;;;;;;;4950300;28;20756;-87
2021/06/01 08:38:21;;;;;;;2.47;2.27;;;21.00;33.80;;;;;;4950959;29;20230;-88
2021/06/01 08:40:53;;;;;;;9.47;2.97;;;;;;;;;;4962683;28;20254;-88
2021/06/01 08:43:24;;;;;;;3.37;1.90;;;21.00;32.70;;;;;;4959812;28;20214;-89
2021/06/01 08:45:53;;;;;;;1.90;1.80;;;21.20;32.90;;;;;;4955650;28;20369;-87
2021/06/01 08:48:19;;;;;;;3.93;1.97;;;;;;;;;;4967005;28;20270;-88
2021/06/01 08:50:53;;;;;;;3.93;2.20;;;21.30;31.80;;;;;;4966902;28;20365;-88
2021/06/01 08:53:19;;;;;;;2.67;2.20;;;;;;;;;;4954436;28;20237;-88
2021/06/01 08:55:46;;;;;;;2.43;2.23;;;21.50;30.30;;;;;;4960176;28;20209;-87
2021/06/01 08:58:21;;;;;;;2.20;2.00;;;21.50;32.00;;;;;;4956940;29;20245;-88
2021/06/01 09:00:48;;;;;;;2.30;2.10;;;21.70;31.50;;;;;;4965639;28;20298;-88
2021/06/01 09:03:18;;;;;;;3.47;2.13;;;21.70;31.10;;;;;;4959693;28;20336;-87
2021/06/01 09:11:56;;;;;;;2.80;2.07;;;21.40;30.60;;;;;;4972707;28;20282;-90
2021/06/01 09:22:37;;;;;;;2.03;1.93;;;21.50;29.30;;;;;;4971745;28;20188;-89
2021/06/01 09:25:29;;;;;;;2.67;2.47;;;21.50;30.90;;;;;;4953875;28;20241;-88
2021/06/01 09:27:56;;;;;;;2.30;1.97;;;21.70;29.40;;;;;;4957433;28;20221;-88
2021/06/01 09:30:51;;;;;;;6.97;2.57;;;21.70;29.40;;;;;;4958780;28;20329;-90
2021/06/01 09:33:19;;;;;;;2.50;2.30;;;22.00;30.60;;;;;;4958801;28;20693;-89
2021/06/01 09:36:00;;;;;;;2.67;2.17;;;22.20;28.60;;;;;;4974635;28;20316;-88
2021/06/01 09:38:29;;;;;;;2.60;1.87;;;21.90;28.10;;;;;;4959941;28;20248;-89
2021/06/01 09:41:08;;;;;;;2.03;1.77;;;21.90;28.80;;;;;;4952740;28;20287;-88
2021/06/01 09:43:48;;;;;;;3.70;2.27;;;22.00;29.60;;;;;;4961230;28;20284;-88
2021/06/01 09:46:34;;;;;;;1.77;1.67;;;22.40;28.90;;;;;;4955471;28;20297;-88
2021/06/01 09:49:12;;;;;;;2.33;2.10;;;22.60;29.30;;;;;;4954603;28;20252;-88
2021/06/01 09:51:48;;;;;;;1.90;1.70;;;22.70;27.70;;;;;;4965606;28;20220;-89
2021/06/01 09:54:27;;;;;;;2.83;2.07;;;22.90;28.00;;;;;;4957184;28;20233;-88
2021/06/01 09:56:53;;;;;;;1.60;1.50;;;22.90;27.70;;;;;;4976411;28;20239;-88
2021/06/01 09:59:19;;;;;;;2.07;1.80;;;23.10;26.90;;;;;;4959300;28;20221;-88
2021/06/01 10:01:44;;;;;;;2.90;1.73;;;23.00;27.10;;;;;;4969697;28;20234;-88
2021/06/01 10:04:22;;;;;;;2.20;2.00;;;23.00;27.80;;;;;;4962995;28;20201;-88
2021/06/01 10:06:48;;;;;;;2.10;1.80;;;23.10;26.60;;;;;;4965582;28;20203;-88
2021/06/01 10:09:13;;;;;;;1.80;1.70;;;23.10;27.90;;;;;;4965681;28;20705;-87
2021/06/01 10:11:41;;;;;;;2.00;1.90;;;22.90;27.10;;;;;;4966298;28;20223;-89
2021/06/01 10:14:07;;;;;;;3.43;2.17;;;22.90;27.20;;;;;;4959980;28;20291;-88
2021/06/01 10:16:34;;;;;;;2.07;1.97;;;22.90;27.70;;;;;;4962188;28;20241;-88
2021/06/01 10:19:00;;;;;;;3.03;2.13;;;22.80;28.80;;;;;;4968122;28;20221;-89
2021/06/01 10:21:27;;;;;;;2.03;1.93;;;22.90;26.50;;;;;;4960976;28;20227;-89
2021/06/01 10:23:53;;;;;;;2.03;1.93;;;22.90;27.60;;;;;;4965205;28;20201;-89
2021/06/01 10:26:23;;;;;;;2.30;2.10;;;;;;;;;;4965233;28;20232;-88
2021/06/01 10:28:49;;;;;;;2.63;1.90;;;23.20;27.50;;;;;;4976788;28;20195;-88
2021/06/01 10:31:17;;;;;;;2.10;1.90;;;23.20;27.80;;;;;;4959389;28;20193;-89
2021/06/01 10:33:46;;;;;;;2.23;2.00;;;23.10;28.20;;;;;;4962302;28;20252;-89
2021/06/01 10:51:02;;;;;;;1.87;1.77;;;23.40;27.10;;;;;;4924936;29;20332;-89
2021/06/01 10:53:40;;;;;;;5.97;1.77;;;23.50;27.30;;;;;;4907625;29;20196;-89
2021/06/01 10:56:06;;;;;;;2.80;1.90;;;25.10;28.00;;;;;;4907373;29;20263;-89
2021/06/01 10:58:39;;;;;;;2.23;1.87;;;23.90;27.60;;;;;;4906342;29;20219;-88
2021/06/01 11:04:15;;;;;;;1.87;1.77;;;24.10;26.40;;;;;;4882969;29;20871;-89
2021/06/01 11:06:54;;;;;;;2.00;1.90;;;24.10;26.10;;;;;;4882646;29;20257;-88
2021/06/01 11:09:32;;;;;;;1.83;1.70;;;24.10;25.90;;;;;;4888014;29;20222;-89
2021/06/01 11:12:27;;;;;;;2.03;1.93;;;24.30;27.80;;;;;;4885139;29;20310;-89
2021/06/01 11:15:00;;;;;;;2.07;1.97;;;24.40;25.90;;;;;;4886887;29;20651;-90
2021/06/01 11:17:39;;;;;;;2.37;1.93;;;24.30;25.60;;;;;;4883401;29;20271;-90
2021/06/01 11:20:31;;;;;;;2.57;1.90;;;24.40;26.30;;;;;;4886808;29;20221;-89
2021/06/01 11:23:21;;;;;;;3.20;1.77;;;24.70;23.50;;;;;;4922874;29;20228;-89
2021/06/01 11:34:17;;;;;;;1.67;1.57;;;;;;;;;;4889284;29;20272;-91
2021/06/01 11:37:03;;;;;;;1.87;1.60;;;;;;;;;;4887678;29;20237;-91
2021/06/01 11:40:21;;;;;;;2.90;1.83;;;;;;;;;;4906186;29;20224;-91
2021/06/01 11:42:50;;;;;;;1.90;1.80;;;25.70;22.20;;;;;;4896896;29;20230;-91
2021/06/01 11:45:19;;;;;;;2.03;1.92;;;25.70;22.60;;;;;;4892354;29;20737;-89
2021/06/01 11:51:25;;;;;;;2.20;1.73;;;27.20;20.00;;;;;;4873230;29;20193;-92
2021/06/01 11:53:51;;;;;;;1.70;1.50;;;;;;;;;;4867272;29;20188;-89
2021/06/01 11:56:39;;;;;;;2.28;1.30;;;29.10;19.70;;;;;;4852099;29;20292;-89
2021/06/01 12:02:10;;;;;;;2.92;1.65;;;29.30;19.60;;;;;;4879263;29;20230;-89
2021/06/01 12:18:50;;;;;;;2.55;1.13;;;30.00;18.20;;;;;;4904991;29;20210;-89
2021/06/01 12:21:23;;;;;;;1.55;1.45;;;30.80;17.30;;;;;;4889160;29;20227;-88
2021/06/01 12:24:00;;;;;;;1.60;1.50;;;31.00;15.50;;;;;;4889675;29;20218;-89
2021/06/01 12:32:27;;;;;;;1.75;1.30;;;34.70;14.50;;;;;;4973865;28;20307;-89
2021/06/01 12:45:53;;;;;;;2.67;1.40;;;36.00;14.00;;;;;;4971191;28;20196;-89
2021/06/01 13:21:18;;;;;;;1.63;1.35;;;37.00;12.90;;;;;;4909286;29;20203;-85
2021/06/01 13:56:15;;;;;;;3.10;1.50;;;39.00;11.10;;;;;;4975953;28;20208;-86
2021/06/01 14:20:29;;;;;;;1.95;1.77;;;41.30;10.60;;;;;;4971958;28;20192;-85
2021/06/01 14:31:25;;;;;;;3.15;1.85;;;43.00;9.30;;;;;;4973155;28;20228;-86
2021/06/01 15:23:27;;;;;;;1.48;1.38;;;41.70;9.30;;;;;;4964737;28;20189;-87
2021/06/01 15:52:54;;;;;;;1.85;1.40;;;38.80;10.40;;;;;;4967496;28;20196;-87
2021/06/01 16:23:36;;;;;;;1.42;1.20;;;42.50;9.30;;;;;;4973160;28;20219;-86
2021/06/01 16:43:02;;;;;;;1.65;1.55;;;42.20;9.10;;;;;;4966644;28;20236;-85
2021/06/01 17:04:56;;;;;;;2.22;1.73;;;45.30;7.80;;;;;;4974825;28;20281;-83
2021/06/01 17:07:41;;;;;;;3.03;1.60;;;43.80;7.50;;;;;;4956243;28;20236;-83
2021/06/01 17:13:01;;;;;;;1.27;1.17;;;42.50;8.90;;;;;;4971893;28;20300;-82
2021/06/01 17:15:28;;;;;;;1.65;1.55;;;43.00;8.20;;;;;;4960213;28;20232;-82
2021/06/01 17:18:01;;;;;;;2.90;1.70;;;43.50;8.10;;;;;;4957218;28;20676;-82
2021/06/01 17:20:42;;;;;;;1.63;1.52;;;44.70;7.60;;;;;;4953720;28;20284;-83
2021/06/01 17:36:45;;;;;;;2.28;1.92;;;44.40;7.60;;;;;;4968405;28;21835;-83
2021/06/01 17:39:11;;;;;;;4.05;1.60;;;44.60;7.80;;;;;;4970436;28;20221;-83
2021/06/01 17:41:38;;;;;;;1.30;1.20;;;44.40;7.60;;;;;;4948951;28;20221;-83
2021/06/01 17:44:05;;;;;;;3.30;2.10;;;44.30;7.50;;;;;;4951060;28;20599;-83
2021/06/01 17:46:37;;;;;;;7.47;6.85;;;44.40;7.60;;;;;;4967596;28;20207;-86
2021/06/01 17:49:07;;;;;;;3.65;3.30;;;44.40;8.00;;;;;;4950763;28;20642;-86
2021/06/01 17:51:33;;;;;;;7.97;7.18;;;44.10;7.70;;;;;;4950975;28;20284;-86
2021/06/01 17:54:00;;;;;;;2.17;1.60;;;43.80;7.90;;;;;;4950897;28;20252;-86
2021/06/01 17:56:30;;;;;;;7.28;6.68;;;43.40;7.80;;;;;;4949499;28;20316;-86
2021/06/01 17:58:57;;;;;;;3.10;2.80;;;43.60;8.30;;;;;;4949261;28;20236;-85
2021/06/01 18:01:25;;;;;;;1.85;1.42;;;43.00;8.80;;;;;;4971945;28;20204;-85
2021/06/01 18:06:27;;;;;;;2.28;1.23;;;42.00;9.00;;;;;;4969592;28;20217;-84
2021/06/01 19:25:08;;;;;;;3.43;2.73;;;23.20;27.30;;;;;;4977686;28;20218;-86
2021/06/01 19:52:14;;;;;;;2.83;2.23;;;21.50;31.90;;;;;;4974465;28;20247;-87
2021/06/01 19:54:40;;;;;;;3.70;2.50;;;21.30;32.70;;;;;;4963336;28;20319;-85
2021/06/01 19:57:06;;;;;;;3.63;2.40;;;21.10;32.80;;;;;;4957552;28;20231;-88
2021/06/01 19:59:34;;;;;;;4.37;2.83;;;21.10;33.70;;;;;;4964290;28;20203;-87
2021/06/01 20:02:00;;;;;;;2.77;2.57;;;20.90;33.70;;;;;;4957767;28;20280;-85
2021/06/01 20:04:29;;;;;;;3.50;2.80;;;20.80;34.70;;;;;;4953243;28;20196;-86
2021/06/01 20:06:56;;;;;;;4.20;3.03;;;20.60;36.40;;;;;;4951782;28;20611;-86
2021/06/01 20:09:24;;;;;;;3.33;2.63;;;20.60;37.00;;;;;;4963344;28;20305;-86
2021/06/01 20:11:49;;;;;;;2.63;2.43;;;20.40;37.40;;;;;;4971262;28;20192;-87
2021/06/01 20:14:16;;;;;;;3.80;3.00;;;;;;;;;;4972956;28;20293;-87
2021/06/01 20:16:52;;;;;;;2.40;2.20;;;20.10;38.00;;;;;;4975148;28;20887;-86
2021/06/01 20:19:19;;;;;;;3.13;2.67;;;20.00;38.50;;;;;;4966389;28;20193;-87
2021/06/01 20:21:51;;;;;;;4.00;2.60;;;19.90;38.80;;;;;;4978834;28;20212;-86